createdAt,value
2019-04-27T00:00:47.986Z,2.30
2019-04-27T00:03:41.476Z,2.53
2019-04-27T00:06:13.562Z,2.40
2019-04-27T00:08:47.730Z,2.17
2019-04-27T00:11:18.959Z,2.67
2019-04-27T00:13:48.581Z,2.37
2019-04-27T00:16:36.058Z,2.47
2019-04-27T00:19:15.919Z,2.70
2019-04-27T00:21:49.590Z,2.90
2019-04-27T00:24:19.190Z,2.50
2019-04-27T00:26:48.641Z,2.97
2019-04-27T00:29:18.262Z,2.40
2019-04-27T00:31:47.730Z,2.83
2019-04-27T00:34:17.227Z,2.60
2019-04-27T00:36:48.292Z,2.57
2019-04-27T00:39:23.086Z,2.30
2019-04-27T00:41:53.161Z,2.77
2019-04-27T00:44:23.690Z,2.50
2019-04-27T00:46:53.487Z,2.93
2019-04-27T00:49:23.903Z,2.70
2019-04-27T00:51:53.641Z,3.23
2019-04-27T00:54:23.773Z,3.00
2019-04-27T00:56:57.614Z,3.27
2019-04-27T00:59:40.410Z,3.20
2019-04-27T01:02:17.736Z,2.97
2019-04-27T01:04:47.382Z,3.07
2019-04-27T01:07:16.796Z,2.90
2019-04-27T01:09:46.150Z,2.93
2019-04-27T01:12:15.767Z,2.63
2019-04-27T01:14:45.238Z,2.30
2019-04-27T01:17:14.624Z,3.00
2019-04-27T01:19:44.196Z,2.90
2019-04-27T01:22:13.866Z,2.60
2019-04-27T01:24:43.222Z,2.97
2019-04-27T01:27:16.740Z,3.07
2019-04-27T01:29:46.162Z,2.80
2019-04-27T01:32:16.293Z,2.83
2019-04-27T01:34:45.645Z,2.73
2019-04-27T01:37:14.982Z,2.77
2019-04-27T01:39:44.337Z,4.07
2019-04-27T01:42:13.767Z,3.07
2019-04-27T01:44:43.126Z,2.90
2019-04-27T01:47:12.476Z,3.27
2019-04-27T01:49:41.898Z,3.30
2019-04-27T01:52:11.246Z,2.97
2019-04-27T01:54:41.086Z,2.53
2019-04-27T01:57:10.735Z,3.20
2019-04-27T01:59:40.103Z,2.73
2019-04-27T02:02:11.250Z,2.90
2019-04-27T02:04:42.329Z,2.90
2019-04-27T02:07:12.066Z,3.00
2019-04-27T02:09:41.486Z,3.00
2019-04-27T02:12:10.958Z,3.10
2019-04-27T02:14:40.314Z,3.53
2019-04-27T02:17:09.800Z,6.17
2019-04-27T02:19:39.416Z,6.57
2019-04-27T02:22:08.957Z,7.83
2019-04-27T02:24:38.999Z,6.90
2019-04-27T02:27:09.052Z,8.00
2019-04-27T02:29:43.086Z,8.27
2019-04-27T02:32:30.540Z,7.73
2019-04-27T02:35:01.536Z,7.80
2019-04-27T02:37:30.988Z,7.80
2019-04-27T02:40:00.532Z,9.10
2019-04-27T02:42:31.692Z,9.00
2019-04-27T02:45:01.045Z,8.43
2019-04-27T02:47:30.418Z,7.33
2019-04-27T02:50:00.604Z,8.27
2019-04-27T02:52:34.865Z,7.67
2019-04-27T02:55:05.747Z,7.90
2019-04-27T02:57:35.131Z,8.70
2019-04-27T03:00:07.082Z,8.10
2019-04-27T03:02:40.259Z,8.00
2019-04-27T03:05:10.897Z,8.80
2019-04-27T03:07:42.698Z,8.53
2019-04-27T03:10:11.700Z,6.97
2019-04-27T03:12:42.701Z,8.07
2019-04-27T03:15:14.146Z,7.60
2019-04-27T03:18:01.483Z,7.17
2019-04-27T03:20:32.479Z,6.67
2019-04-27T03:23:06.141Z,7.33
2019-04-27T03:25:37.201Z,7.93
2019-04-27T03:28:10.490Z,6.77
2019-04-27T03:30:42.304Z,7.43
2019-04-27T03:33:12.059Z,6.80
2019-04-27T03:35:43.681Z,7.00
2019-04-27T03:38:13.799Z,6.97
2019-04-27T03:40:43.319Z,7.43
2019-04-27T03:43:14.394Z,7.23
2019-04-27T03:45:43.744Z,6.30
2019-04-27T03:48:13.124Z,6.77
2019-04-27T03:50:50.644Z,6.53
2019-04-27T03:53:24.492Z,6.17
2019-04-27T03:55:55.532Z,6.53
2019-04-27T03:58:39.605Z,7.17
2019-04-27T04:01:10.567Z,7.57
2019-04-27T04:03:40.180Z,8.53
2019-04-27T04:06:10.799Z,7.90
2019-04-27T04:08:40.539Z,7.83
2019-04-27T04:11:20.344Z,8.97
2019-04-27T04:13:56.988Z,10.27
2019-04-27T04:16:33.698Z,9.37
2019-04-27T04:19:09.477Z,9.77
2019-04-27T04:21:40.014Z,11.30
2019-04-27T04:24:11.942Z,10.33
2019-04-27T04:26:40.567Z,10.73
2019-04-27T04:29:10.692Z,10.57
2019-04-27T04:31:40.714Z,9.33
2019-04-27T04:34:12.086Z,9.63
2019-04-27T04:36:42.578Z,9.40
2019-04-27T04:39:12.752Z,9.77
2019-04-27T04:41:47.071Z,10.23
2019-04-27T04:44:20.278Z,9.13
2019-04-27T04:46:50.779Z,8.87
2019-04-27T04:49:20.236Z,9.83
2019-04-27T04:51:50.319Z,10.47
2019-04-27T04:54:24.215Z,10.20
2019-04-27T04:56:51.099Z,10.90
2019-04-27T04:59:20.474Z,9.77
2019-04-27T05:01:50.107Z,8.97
2019-04-27T05:04:19.660Z,10.20
2019-04-27T05:06:50.689Z,10.63
2019-04-27T05:09:20.307Z,9.97
2019-04-27T05:11:49.666Z,9.73
2019-04-27T05:14:19.935Z,10.50
2019-04-27T05:16:49.655Z,10.87
2019-04-27T05:19:19.044Z,10.40
2019-04-27T05:21:49.117Z,11.63
2019-04-27T05:24:19.263Z,11.93
2019-04-27T05:26:48.877Z,11.37
2019-04-27T05:29:19.163Z,10.43
2019-04-27T05:31:49.072Z,11.20
2019-04-27T05:34:19.745Z,12.13
2019-04-27T05:36:52.448Z,10.77
2019-04-27T05:39:24.952Z,11.43
2019-04-27T05:41:51.617Z,10.50
2019-04-27T05:44:34.505Z,10.80
2019-04-27T05:47:13.119Z,10.97
2019-04-27T05:49:44.617Z,10.80
2019-04-27T05:52:29.900Z,10.67
2019-04-27T05:55:00.324Z,10.63
2019-04-27T05:57:31.349Z,9.87
2019-04-27T06:00:02.201Z,9.70
2019-04-27T06:02:32.175Z,9.43
2019-04-27T06:05:01.606Z,9.83
2019-04-27T06:07:30.980Z,9.93
2019-04-27T06:10:00.332Z,9.30
2019-04-27T06:12:29.953Z,8.87
2019-04-27T06:15:00.159Z,8.80
2019-04-27T06:17:30.176Z,10.17
2019-04-27T06:19:59.821Z,9.53
2019-04-27T06:22:35.375Z,9.23
2019-04-27T06:25:06.259Z,9.57
2019-04-27T06:27:35.623Z,9.67
2019-04-27T06:30:06.901Z,10.10
2019-04-27T06:32:36.317Z,9.90
2019-04-27T06:35:09.133Z,9.27
2019-04-27T06:37:38.943Z,9.93
2019-04-27T06:40:09.762Z,8.53
2019-04-27T06:42:39.937Z,9.00
2019-04-27T06:45:10.142Z,7.27
2019-04-27T06:47:41.449Z,7.80
2019-04-27T06:50:11.115Z,7.87
2019-04-27T06:52:40.500Z,7.83
2019-04-27T06:55:10.126Z,8.07
2019-04-27T06:57:41.199Z,7.00
2019-04-27T07:00:11.050Z,7.50
2019-04-27T07:02:40.575Z,8.03
2019-04-27T07:05:10.376Z,7.63
2019-04-27T07:07:39.729Z,8.20
2019-04-27T07:10:09.423Z,7.40
2019-04-27T07:12:41.060Z,6.97
2019-04-27T07:15:10.077Z,6.43
2019-04-27T07:17:39.487Z,5.93
2019-04-27T07:20:09.114Z,6.17
2019-04-27T07:22:39.670Z,6.00
2019-04-27T07:25:09.533Z,5.70
2019-04-27T07:27:39.479Z,5.77
2019-04-27T07:30:11.851Z,6.00
2019-04-27T07:32:40.779Z,6.67
2019-04-27T07:35:10.292Z,6.07
2019-04-27T07:37:39.666Z,6.73
2019-04-27T07:40:09.552Z,6.80
2019-04-27T07:42:41.378Z,6.07
2019-04-27T07:45:19.518Z,6.33
2019-04-27T07:47:50.793Z,6.17
2019-04-27T07:50:20.136Z,6.13
2019-04-27T07:52:49.501Z,5.90
2019-04-27T07:55:18.849Z,8.40
2019-04-27T07:57:49.453Z,6.07
2019-04-27T08:00:20.171Z,7.00
2019-04-27T08:02:49.643Z,6.87
2019-04-27T08:05:19.259Z,6.63
2019-04-27T08:07:49.158Z,7.10
2019-04-27T08:10:19.473Z,6.77
2019-04-27T08:12:49.849Z,7.47
2019-04-27T08:15:19.584Z,6.67
2019-04-27T08:17:49.369Z,7.03
2019-04-27T08:20:21.096Z,7.40
2019-04-27T08:22:50.220Z,7.17
2019-04-27T08:25:19.600Z,7.67
2019-04-27T08:28:10.381Z,7.57
2019-04-27T08:31:00.412Z,7.70
2019-04-27T08:33:30.035Z,7.87
2019-04-27T08:35:59.430Z,7.80
2019-04-27T08:38:29.001Z,7.27
2019-04-27T08:40:59.267Z,7.93
2019-04-27T08:43:29.081Z,7.60
2019-04-27T08:46:00.327Z,6.50
2019-04-27T08:48:34.750Z,6.30
2019-04-27T08:51:00.859Z,6.43
2019-04-27T08:53:30.242Z,7.20
2019-04-27T08:55:59.634Z,5.93
2019-04-27T08:58:29.006Z,6.13
2019-04-27T09:00:59.055Z,5.70
2019-04-27T09:03:29.442Z,5.57
2019-04-27T09:05:59.122Z,4.73
2019-04-27T09:08:33.040Z,5.30
2019-04-27T09:11:08.784Z,5.30
2019-04-27T09:13:41.252Z,5.03
2019-04-27T09:16:15.227Z,5.30
2019-04-27T09:18:44.594Z,4.87
2019-04-27T09:21:14.165Z,3.97
2019-04-27T09:23:43.540Z,4.80
2019-04-27T09:26:12.955Z,4.37
2019-04-27T09:28:42.395Z,4.20
2019-04-27T09:31:11.878Z,4.47
2019-04-27T09:33:41.238Z,4.70
2019-04-27T09:36:10.597Z,5.00
2019-04-27T09:38:39.939Z,4.23
2019-04-27T09:41:09.421Z,4.20
2019-04-27T09:43:38.766Z,3.80
2019-04-27T09:46:08.131Z,4.07
2019-04-27T09:48:37.479Z,3.70
2019-04-27T09:51:06.903Z,4.27
2019-04-27T09:53:36.521Z,3.40
2019-04-27T09:56:06.013Z,3.23
2019-04-27T09:58:36.623Z,3.30
2019-04-27T10:01:06.669Z,3.43
2019-04-27T10:03:36.217Z,3.20
2019-04-27T10:06:05.997Z,3.13
2019-04-27T10:08:36.711Z,3.83
2019-04-27T10:11:06.342Z,3.57
2019-04-27T10:13:36.441Z,3.70
2019-04-27T10:16:06.199Z,3.50
2019-04-27T10:18:36.785Z,3.40
2019-04-27T10:21:06.437Z,3.60
2019-04-27T10:23:38.432Z,3.60
2019-04-27T10:26:08.191Z,3.33
2019-04-27T10:28:37.530Z,3.47
2019-04-27T10:31:07.161Z,3.70
2019-04-27T10:33:36.728Z,3.37
2019-04-27T10:36:06.602Z,3.80
2019-04-27T10:38:36.194Z,4.30
2019-04-27T10:41:07.637Z,3.20
2019-04-27T10:43:36.859Z,4.17
2019-04-27T10:46:06.650Z,3.30
2019-04-27T10:48:36.737Z,5.07
2019-04-27T10:51:07.390Z,3.77
2019-04-27T10:53:38.951Z,3.77
2019-04-27T10:56:08.251Z,3.90
2019-04-27T10:58:37.674Z,3.77
2019-04-27T11:01:08.697Z,3.37
2019-04-27T11:03:51.640Z,3.30
2019-04-27T11:06:28.351Z,3.67
2019-04-27T11:08:57.947Z,2.93
2019-04-27T11:11:27.793Z,3.13
2019-04-27T11:14:00.812Z,2.90
2019-04-27T11:16:28.506Z,4.03
2019-04-27T11:18:58.741Z,3.90
2019-04-27T11:21:28.238Z,3.80
2019-04-27T11:23:57.743Z,3.33
2019-04-27T11:26:27.078Z,4.10
2019-04-27T11:28:56.578Z,3.60
2019-04-27T11:31:26.189Z,3.80
2019-04-27T11:33:56.697Z,3.93
2019-04-27T11:36:27.923Z,4.30
2019-04-27T11:38:58.988Z,4.57
2019-04-27T11:41:28.461Z,4.37
2019-04-27T11:43:57.814Z,3.43
2019-04-27T11:46:27.477Z,3.90
2019-04-27T11:48:58.391Z,3.10
2019-04-27T11:51:27.990Z,2.80
2019-04-27T11:53:57.594Z,2.33
2019-04-27T11:56:27.508Z,2.90
2019-04-27T11:58:57.035Z,2.70
2019-04-27T12:01:27.042Z,2.60
2019-04-27T12:03:56.632Z,2.77
2019-04-27T12:06:26.341Z,2.13
2019-04-27T12:08:55.683Z,2.10
2019-04-27T12:11:26.109Z,2.33
2019-04-27T12:13:56.155Z,1.40
2019-04-27T12:16:26.289Z,1.70
2019-04-27T12:18:56.381Z,1.37
2019-04-27T12:21:26.050Z,1.43
2019-04-27T12:23:55.506Z,1.50
2019-04-27T12:26:29.490Z,1.50
2019-04-27T12:29:00.488Z,1.50
2019-04-27T12:31:31.490Z,1.80
2019-04-27T12:34:00.895Z,1.50
2019-04-27T12:36:30.253Z,1.50
2019-04-27T12:38:59.624Z,2.00
2019-04-27T12:41:28.987Z,1.37
2019-04-27T12:43:58.351Z,2.20
2019-04-27T12:46:28.283Z,1.40
2019-04-27T12:48:57.756Z,1.40
2019-04-27T12:51:27.091Z,1.60
2019-04-27T12:54:01.289Z,1.43
2019-04-27T12:56:48.899Z,1.50
2019-04-27T12:59:19.901Z,1.30
2019-04-27T13:01:49.240Z,1.33
2019-04-27T13:04:18.651Z,1.83
2019-04-27T13:06:48.042Z,1.23
2019-04-27T13:09:17.576Z,1.30
2019-04-27T13:11:46.947Z,1.10
2019-04-27T13:14:16.422Z,1.60
2019-04-27T13:16:47.472Z,1.60
2019-04-27T13:19:16.972Z,1.27
2019-04-27T13:21:46.979Z,1.50
2019-04-27T13:24:16.903Z,1.60
2019-04-27T13:26:46.298Z,1.67
2019-04-27T13:29:16.645Z,1.40
2019-04-27T13:31:46.295Z,1.63
2019-04-27T13:34:15.946Z,1.30
2019-04-27T13:36:45.770Z,2.00
2019-04-27T13:39:15.816Z,1.63
2019-04-27T13:41:46.307Z,2.83
2019-04-27T13:44:16.100Z,1.80
2019-04-27T13:47:06.200Z,1.77
2019-04-27T13:49:43.139Z,1.90
2019-04-27T13:52:16.100Z,3.17
2019-04-27T13:54:45.862Z,2.00
2019-04-27T13:57:16.422Z,2.67
2019-04-27T13:59:46.656Z,2.30
2019-04-27T14:02:16.216Z,1.83
2019-04-27T14:04:45.821Z,2.00
2019-04-27T14:07:15.235Z,1.67
2019-04-27T14:09:44.678Z,2.10
2019-04-27T14:12:15.722Z,1.70
2019-04-27T14:14:45.286Z,2.20
2019-04-27T14:17:14.635Z,1.80
2019-04-27T14:19:44.008Z,1.97
2019-04-27T14:22:13.358Z,1.83
2019-04-27T14:24:42.812Z,2.20
2019-04-27T14:27:12.243Z,2.20
2019-04-27T14:29:41.675Z,2.53
2019-04-27T14:32:11.157Z,2.20
2019-04-27T14:34:40.667Z,2.20
2019-04-27T14:37:10.019Z,2.03
2019-04-27T14:39:39.446Z,2.80
2019-04-27T14:42:09.055Z,1.90
2019-04-27T14:44:38.933Z,3.30
2019-04-27T14:47:08.706Z,2.30
2019-04-27T14:49:39.053Z,2.10
2019-04-27T14:52:09.633Z,1.60
2019-04-27T14:54:47.283Z,2.10
2019-04-27T14:57:10.266Z,1.90
2019-04-27T14:59:39.706Z,2.07
2019-04-27T15:02:09.617Z,1.90
2019-04-27T15:04:40.225Z,1.77
2019-04-27T15:07:10.286Z,1.83
2019-04-27T15:09:39.663Z,2.27
2019-04-27T15:12:09.169Z,2.10
2019-04-27T15:14:38.881Z,2.00
2019-04-27T15:17:12.501Z,1.77
2019-04-27T15:19:41.317Z,1.90
2019-04-27T15:22:19.192Z,2.00
2019-04-27T15:24:48.939Z,2.00
2019-04-27T15:27:16.193Z,2.47
2019-04-27T15:29:45.695Z,2.03
2019-04-27T15:32:26.065Z,1.53
2019-04-27T15:34:58.792Z,1.70
2019-04-27T15:37:44.888Z,1.70
2019-04-27T15:40:21.769Z,1.70
2019-04-27T15:42:53.272Z,1.70
2019-04-27T15:45:24.353Z,1.80
2019-04-27T15:47:54.822Z,1.80
2019-04-27T15:50:30.278Z,1.63
2019-04-27T15:52:55.538Z,1.87
2019-04-27T15:55:34.445Z,1.90
2019-04-27T15:57:56.030Z,3.37
2019-04-27T16:00:44.754Z,1.60
2019-04-27T16:03:14.111Z,2.83
2019-04-27T16:05:43.543Z,2.07
2019-04-27T16:08:15.691Z,2.97
2019-04-27T16:10:44.306Z,1.60
2019-04-27T16:13:15.288Z,2.20
2019-04-27T16:15:50.318Z,1.80
2019-04-27T16:18:16.057Z,2.47
2019-04-27T16:20:45.670Z,2.00
2019-04-27T16:23:15.314Z,2.23
2019-04-27T16:25:48.614Z,2.03
2019-04-27T16:28:15.904Z,2.37
2019-04-27T16:30:45.725Z,2.60
2019-04-27T16:33:22.007Z,3.77
2019-04-27T16:35:48.812Z,2.93
2019-04-27T16:38:33.407Z,2.33
2019-04-27T16:41:03.356Z,2.10
2019-04-27T16:43:32.884Z,1.80
2019-04-27T16:46:04.192Z,2.53
2019-04-27T16:48:34.702Z,2.20
2019-04-27T16:51:04.452Z,1.90
2019-04-27T16:53:39.488Z,2.20
2019-04-27T16:56:14.426Z,2.57
2019-04-27T16:58:39.912Z,2.00
2019-04-27T17:01:28.422Z,2.07
2019-04-27T17:03:59.556Z,2.27
2019-04-27T17:06:29.542Z,1.90
2019-04-27T17:09:05.654Z,2.00
2019-04-27T17:11:30.321Z,1.90
2019-04-27T17:14:01.387Z,2.27
2019-04-27T17:16:34.798Z,3.13
2019-04-27T17:19:12.446Z,2.20
2019-04-27T17:21:41.866Z,3.50
2019-04-27T17:24:11.282Z,2.43
2019-04-27T17:26:43.522Z,2.10
2019-04-27T17:29:16.199Z,1.93
2019-04-27T17:31:46.054Z,2.70
2019-04-27T17:34:18.974Z,2.10
2019-04-27T17:36:48.495Z,1.80
2019-04-27T17:39:19.295Z,2.20
2019-04-27T17:41:52.068Z,2.67
2019-04-27T17:44:23.184Z,2.67
2019-04-27T17:46:51.271Z,2.30
2019-04-27T17:49:20.873Z,2.90
2019-04-27T17:51:50.406Z,2.90
2019-04-27T17:54:19.756Z,3.07
2019-04-27T17:56:52.321Z,3.00
2019-04-27T17:59:20.969Z,2.67
2019-04-27T18:01:53.847Z,2.63
2019-04-27T18:04:21.702Z,2.90
2019-04-27T18:06:51.244Z,2.83
2019-04-27T18:09:21.034Z,2.10
2019-04-27T18:11:50.562Z,2.50
2019-04-27T18:14:20.131Z,2.97
2019-04-27T18:16:49.494Z,2.47
2019-04-27T18:19:28.173Z,4.00
2019-04-27T18:22:05.402Z,3.33
2019-04-27T18:24:37.981Z,4.33
2019-04-27T18:27:12.209Z,2.80
2019-04-27T18:29:41.559Z,3.70
2019-04-27T18:32:11.003Z,3.10
2019-04-27T18:34:40.378Z,2.70
2019-04-27T18:37:09.752Z,2.63
2019-04-27T18:39:40.973Z,2.27
2019-04-27T18:42:10.231Z,2.40
2019-04-27T18:44:39.681Z,2.60
2019-04-27T18:47:09.035Z,3.33
2019-04-27T18:49:55.014Z,3.00
2019-04-27T18:52:26.408Z,3.37
2019-04-27T18:54:55.778Z,3.90
2019-04-27T18:57:25.198Z,3.13
2019-04-27T18:59:54.549Z,2.40
2019-04-27T19:02:23.948Z,2.77
2019-04-27T19:04:53.299Z,2.30
2019-04-27T19:07:22.647Z,2.73
2019-04-27T19:09:52.010Z,2.00
2019-04-27T19:12:21.536Z,1.77
2019-04-27T19:14:50.931Z,2.20
2019-04-27T19:17:20.398Z,2.10
2019-04-27T19:19:49.759Z,1.90
2019-04-27T19:22:19.099Z,3.13
2019-04-27T19:24:48.483Z,2.30
2019-04-27T19:27:22.522Z,2.23
2019-04-27T19:29:53.597Z,2.00
2019-04-27T19:32:23.133Z,2.40
2019-04-27T19:34:52.537Z,3.23
2019-04-27T19:37:21.903Z,2.60
2019-04-27T19:39:51.265Z,2.37
2019-04-27T19:42:20.684Z,2.50
2019-04-27T19:44:50.230Z,2.47
2019-04-27T19:47:19.971Z,2.40
2019-04-27T19:50:10.245Z,2.30
2019-04-27T19:52:40.035Z,2.30
2019-04-27T19:55:09.716Z,2.23
2019-04-27T19:57:41.945Z,1.80
2019-04-27T20:00:24.785Z,2.50
2019-04-27T20:02:54.343Z,1.80
2019-04-27T20:05:23.734Z,2.20
2019-04-27T20:07:53.097Z,2.17
2019-04-27T20:10:22.706Z,2.20
2019-04-27T20:12:52.057Z,2.00
2019-04-27T20:15:21.535Z,2.17
2019-04-27T20:17:50.913Z,2.37
2019-04-27T20:20:20.348Z,2.30
2019-04-27T20:22:49.791Z,2.33
2019-04-27T20:25:21.150Z,2.37
2019-04-27T20:27:51.957Z,2.00
2019-04-27T20:30:21.443Z,3.40
2019-04-27T20:32:51.132Z,2.20
2019-04-27T20:35:22.005Z,2.73
2019-04-27T20:37:51.940Z,2.00
2019-04-27T20:40:21.876Z,2.23
2019-04-27T20:42:51.713Z,1.93
2019-04-27T20:45:21.358Z,2.87
2019-04-27T20:47:52.591Z,2.63
2019-04-27T20:50:22.012Z,2.27
2019-04-27T20:52:53.117Z,2.50
2019-04-27T20:55:22.561Z,2.50
2019-04-27T20:58:01.107Z,2.53
2019-04-27T21:00:23.610Z,2.20
2019-04-27T21:03:03.763Z,2.70
2019-04-27T21:05:43.526Z,3.60
2019-04-27T21:08:17.020Z,3.30
2019-04-27T21:10:46.624Z,3.57
2019-04-27T21:13:15.984Z,4.33
2019-04-27T21:15:45.432Z,3.73
2019-04-27T21:18:14.785Z,3.77
2019-04-27T21:20:44.228Z,3.70
2019-04-27T21:23:13.587Z,3.03
2019-04-27T21:25:42.973Z,3.30
2019-04-27T21:28:18.474Z,3.00
2019-04-27T21:30:43.377Z,2.60
2019-04-27T21:33:12.816Z,4.57
2019-04-27T21:35:42.459Z,3.40
2019-04-27T21:38:11.806Z,3.17
2019-04-27T21:40:41.195Z,3.03
2019-04-27T21:43:11.291Z,3.50
2019-04-27T21:45:42.002Z,3.33
2019-04-27T21:48:11.771Z,2.60
2019-04-27T21:50:41.424Z,3.47
2019-04-27T21:53:15.249Z,3.43
2019-04-27T21:55:44.697Z,2.70
2019-04-27T21:58:14.050Z,2.90
2019-04-27T22:00:45.061Z,2.70
2019-04-27T22:03:16.046Z,2.70
2019-04-27T22:05:45.492Z,2.67
2019-04-27T22:08:14.962Z,3.20
2019-04-27T22:10:44.457Z,2.90
2019-04-27T22:13:13.866Z,3.23
2019-04-27T22:15:43.490Z,3.40
2019-04-27T22:18:13.167Z,2.63
2019-04-27T22:20:42.784Z,2.83
2019-04-27T22:23:13.831Z,2.53
2019-04-27T22:25:43.547Z,4.13
2019-04-27T22:28:12.912Z,2.70
2019-04-27T22:30:42.262Z,2.80
2019-04-27T22:33:11.630Z,2.73
2019-04-27T22:35:41.503Z,3.10
2019-04-27T22:38:11.946Z,3.03
2019-04-27T22:40:43.046Z,2.80
2019-04-27T22:43:14.046Z,2.43
2019-04-27T22:45:45.098Z,2.47
2019-04-27T22:48:14.541Z,2.60
2019-04-27T22:50:43.910Z,3.17
2019-04-27T22:53:13.374Z,2.90
2019-04-27T22:56:01.151Z,3.23
2019-04-27T22:58:30.927Z,3.30
2019-04-27T23:01:07.423Z,2.80
2019-04-27T23:03:38.409Z,2.80
2019-04-27T23:06:07.825Z,2.47
2019-04-27T23:08:37.174Z,2.83
2019-04-27T23:11:06.815Z,3.27
2019-04-27T23:13:36.146Z,3.13
2019-04-27T23:16:11.600Z,2.37
2019-04-27T23:18:41.456Z,3.63
2019-04-27T23:21:11.796Z,2.83
2019-04-27T23:23:41.465Z,2.97
2019-04-27T23:26:11.973Z,2.87
2019-04-27T23:28:41.510Z,2.93
2019-04-27T23:31:21.107Z,3.33
2019-04-27T23:33:51.793Z,2.33
2019-04-27T23:36:21.699Z,2.47
2019-04-27T23:38:51.201Z,3.07
2019-04-27T23:41:20.650Z,2.70
2019-04-27T23:43:50.040Z,2.13
2019-04-27T23:46:21.372Z,2.27
2019-04-27T23:48:52.047Z,2.80
2019-04-27T23:51:38.422Z,2.87
2019-04-27T23:54:07.782Z,2.60
2019-04-27T23:56:37.131Z,2.30
2019-04-27T23:59:06.691Z,2.60
